Time;durP1;ratioP1;P1;durP2;ratioP2;P2;SDS_P1;SDS_P2;PMS_P1;PMS_P2;Temp;Humidity;BMP_temperature;BMP_pressure;BME280_temperature;BME280_humidity;BME280_pressure;Samples;Min_cycle;Max_cycle;Signal;HPM_P1;HPM_P2
2022/02/09 00:01:55;;;;;;;4.12;3.72;;;;;;;9.40;98.62;100981.54;2883285;82;21054;-73
2022/02/09 00:05:16;;;;;;;4.22;3.83;;;;;;;9.38;98.25;100979.47;2863529;82;21102;-73
2022/02/09 00:09:04;;;;;;;5.22;3.87;;;;;;;9.47;97.85;100975.35;2890498;82;21532;-75
2022/02/09 01:11:19;;;;;;;4.85;4.05;;;;;;;9.48;98.20;101033.69;2845962;83;21551;-75
2022/02/09 01:58:11;;;;;;;5.28;4.33;;;;;;;9.47;97.42;101041.28;2893653;81;21094;-74
2022/02/09 02:02:12;;;;;;;6.17;5.30;;;;;;;9.50;96.87;101043.73;2894613;82;21544;-74
2022/02/09 02:06:15;;;;;;;8.28;6.00;;;;;;;9.48;97.23;101050.09;2895569;82;21440;-75
2022/02/09 02:10:27;;;;;;;7.03;5.17;;;;;;;9.48;97.06;101054.94;2894848;81;20983;-71
2022/02/09 02:14:35;;;;;;;13.25;5.90;;;;;;;9.40;96.76;101038.62;2882208;82;21107;-73
2022/02/09 02:18:32;;;;;;;7.72;5.95;;;;;;;9.48;96.40;101040.33;2882418;82;21112;-73
2022/02/09 02:23:03;;;;;;;6.40;5.10;;;;;;;9.51;96.11;101051.20;2883545;81;21105;-75
2022/02/09 02:47:27;;;;;;;8.73;5.87;;;;;;;9.67;94.70;101047.09;2885544;82;21035;-75
2022/02/09 03:08:35;;;;;;;6.22;5.05;;;;;;;9.78;94.40;101020.64;2836342;83;21027;-75
2022/02/09 03:13:08;;;;;;;6.95;5.37;;;;;;;9.78;94.59;101026.45;2835042;83;21078;-75
2022/02/09 03:16:38;;;;;;;7.97;6.05;;;;;;;9.76;94.60;101031.85;2840271;82;21051;-75
2022/02/09 03:20:41;;;;;;;8.03;4.87;;;;;;;9.79;94.61;101034.80;2844275;83;21059;-74
2022/02/09 03:25:04;;;;;;;7.80;5.33;;;;;;;9.80;94.30;101043.14;2843201;83;21015;-74
2022/02/09 03:58:15;;;;;;;7.80;6.08;;;;;;;9.83;92.96;101049.58;2845146;83;21098;-75
2022/02/09 04:02:16;;;;;;;9.63;5.85;;;;;;;9.81;93.32;101050.98;2844872;82;21042;-72
2022/02/09 04:06:18;;;;;;;8.70;5.22;;;;;;;9.74;93.89;101045.72;2845069;83;21039;-74
2022/02/09 04:10:24;;;;;;;7.55;5.15;;;;;;;9.74;94.22;101051.53;2845130;83;21018;-75
2022/02/09 04:14:35;;;;;;;9.53;5.50;;;;;;;9.69;94.53;101050.00;2843469;83;21098;-74
2022/02/09 04:39:49;;;;;;;5.90;3.70;;;;;;;9.65;94.21;101025.92;2893226;81;21573;-75
2022/02/09 04:56:39;;;;;;;5.43;4.87;;;;;;;9.91;92.42;101016.68;2893819;82;21066;-76
2022/02/09 05:00:46;;;;;;;5.30;4.50;;;;;;;9.92;91.91;101009.08;2890074;82;21062;-76
2022/02/09 05:26:04;;;;;;;4.78;3.98;;;;;;;9.91;90.74;101007.88;2880336;81;21078;-71
2022/02/09 05:29:52;;;;;;;6.53;5.45;;;;;;;9.82;90.89;101008.84;2868701;82;21413;-75
2022/02/09 05:33:54;;;;;;;5.55;4.22;;;;;;;9.86;91.00;101011.70;2872719;82;21540;-74
2022/02/09 05:37:56;;;;;;;8.68;4.85;;;;;;;9.94;90.57;101020.48;2872269;82;21062;-74
2022/02/09 05:41:58;;;;;;;9.38;5.28;;;;;;;9.92;90.42;101014.39;2872612;82;21031;-74
2022/02/09 05:50:26;;;;;;;7.03;4.85;;;;;;;9.97;90.28;101021.60;2873518;82;21047;-72
2022/02/09 05:58:35;;;;;;;7.60;4.37;;;;;;;9.97;90.14;101032.70;2873381;82;21505;-79
2022/02/09 06:02:25;;;;;;;5.80;4.47;;;;;;;9.98;89.86;101036.59;2870970;81;21291;-80
2022/02/09 06:06:27;;;;;;;8.20;5.62;;;;;;;10.04;89.57;101027.36;2872818;81;21000;-79
2022/02/09 06:10:32;;;;;;;4.12;3.72;;;;;;;10.03;89.43;101032.30;2893627;81;21003;-72
2022/02/09 06:23:03;;;;;;;6.37;4.67;;;;;;;9.94;90.12;101051.51;2883581;81;21035;-78
2022/02/09 06:27:05;;;;;;;4.97;4.47;;;;;;;9.88;90.46;101049.27;2873950;81;21003;-78
2022/02/09 06:31:07;;;;;;;5.97;4.30;;;;;;;9.89;90.56;101057.13;2899479;81;21066;-77
2022/02/09 06:35:09;;;;;;;6.37;5.00;;;;;;;9.90;90.64;101050.86;2892640;81;21065;-79
2022/02/09 06:39:13;;;;;;;5.03;4.47;;;;;;;9.84;90.73;101056.12;2886600;81;21069;-75
2022/02/09 06:43:15;;;;;;;3.50;2.87;;;;;;;9.92;90.79;101057.41;2884502;81;21047;-79
2022/02/09 06:47:21;;;;;;;6.83;4.80;;;;;;;9.92;90.57;101053.42;2866406;82;21919;-79
2022/02/09 06:51:26;;;;;;;4.78;4.28;;;;;;;9.99;90.44;101047.59;2836494;83;21402;-73
2022/02/09 06:55:24;;;;;;;7.55;4.40;;;;;;;10.01;89.95;101050.13;2837479;83;21455;-80
2022/02/09 06:59:29;;;;;;;5.35;4.30;;;;;;;10.05;89.64;101048.99;2872534;82;21014;-79
2022/02/09 07:03:32;;;;;;;7.08;5.58;;;;;;;10.11;89.62;101054.34;2887141;82;21032;-76
2022/02/09 07:07:34;;;;;;;7.35;3.90;;;;;;;10.10;89.39;101058.83;2886802;82;21609;-76
2022/02/09 07:11:35;;;;;;;5.42;3.95;;;;;;;10.18;89.12;101072.07;2886809;82;21512;-79
2022/02/09 07:15:42;;;;;;;5.35;3.42;;;;;;;10.23;88.67;101067.31;2890801;82;21034;-76
2022/02/09 07:19:43;;;;;;;5.03;3.75;;;;;;;10.25;88.54;101068.89;2890141;82;21342;-80
2022/02/09 07:23:49;;;;;;;5.65;4.37;;;;;;;10.25;88.41;101069.39;2890079;82;21087;-79
2022/02/09 07:31:50;;;;;;;5.15;3.85;;;;;;;10.33;88.05;101061.72;2891192;82;20991;-75
2022/02/09 07:35:52;;;;;;;5.08;4.35;;;;;;;10.37;88.28;101061.05;2890751;82;21031;-80
2022/02/09 07:39:54;;;;;;;11.50;5.28;;;;;;;10.35;87.80;101047.84;2889822;82;20995;-76
2022/02/09 07:52:12;;;;;;;5.83;3.98;;;;;;;10.54;87.15;101050.13;2876982;82;21611;-80
2022/02/09 07:56:09;;;;;;;8.45;4.62;;;;;;;10.61;86.89;101049.22;2866947;82;21046;-80
2022/02/09 08:00:13;;;;;;;5.10;3.62;;;;;;;10.65;87.14;101040.53;2867437;82;21039;-80
2022/02/09 08:04:15;;;;;;;4.03;3.70;;;;;;;10.63;86.05;101042.45;2866399;82;21008;-80
2022/02/09 08:08:17;;;;;;;3.80;3.35;;;;;;;10.74;86.36;101049.67;2867013;82;21512;-81
2022/02/09 08:29:43;;;;;;;3.70;2.22;;;;;;;10.99;84.87;101042.13;2853853;82;21008;-72
2022/02/09 08:33:29;;;;;;;3.47;3.17;;;;;;;11.05;84.40;101038.19;2857825;83;21026;-81
2022/02/09 08:37:30;;;;;;;3.30;2.50;;;;;;;10.95;84.19;101022.86;2855265;83;20991;-80
2022/02/09 08:41:32;;;;;;;6.20;4.03;;;;;;;11.05;84.24;101029.70;2856064;82;21008;-77
2022/02/09 08:45:34;;;;;;;3.87;2.17;;;;;;;11.05;83.64;101023.55;2870082;81;21053;-80
2022/02/09 08:49:37;;;;;;;4.03;2.55;;;;;;;11.10;83.46;101037.37;2902009;81;21874;-80
2022/02/09 08:53:38;;;;;;;5.80;3.02;;;;;;;11.17;83.22;101019.97;2902873;81;21395;-77
2022/02/09 08:57:40;;;;;;;3.50;2.85;;;;;;;11.22;82.29;101013.85;2904078;81;21046;-80
2022/02/09 09:01:46;;;;;;;3.47;2.85;;;;;;;11.33;82.84;101025.05;2907814;81;20972;-79
2022/02/09 09:05:49;;;;;;;5.05;3.00;;;;;;;11.35;82.03;101027.58;2884489;81;21404;-81
2022/02/09 09:10:01;;;;;;;2.90;2.40;;;;;;;11.31;81.47;101024.78;2910936;81;21322;-78
2022/02/09 09:18:46;;;;;;;3.50;3.13;;;;;;;11.29;81.92;101029.73;2887117;82;20999;-80
2022/02/09 10:05:30;;;;;;;2.60;2.12;;;;;;;10.82;80.70;101030.04;2878725;82;21061;-81
2022/02/09 10:35:30;;;;;;;3.87;3.15;;;;;;;10.90;81.20;101040.11;2828390;83;21040;-69
2022/02/09 10:40:01;;;;;;;3.98;3.33;;;;;;;10.90;81.45;101039.65;2825835;82;21068;-72
2022/02/09 10:44:09;;;;;;;3.25;2.87;;;;;;;10.85;81.38;101021.83;2825028;84;21026;-75
2022/02/09 10:48:30;;;;;;;3.27;2.98;;;;;;;10.94;80.99;101021.66;2826230;82;21046;-69
2022/02/09 10:52:41;;;;;;;3.80;3.20;;;;;;;11.04;80.84;101019.18;2852959;83;21044;-72
2022/02/09 10:56:46;;;;;;;5.85;3.20;;;;;;;11.14;80.77;101011.75;2853487;83;20975;-76
2022/02/09 11:00:49;;;;;;;3.00;2.42;;;;;;;11.28;80.12;101002.73;2848162;83;21063;-71
2022/02/09 11:04:51;;;;;;;1.70;1.60;;;;;;;11.33;78.46;101001.55;2783591;84;21062;-72
2022/02/09 11:08:52;;;;;;;2.60;1.32;;;;;;;11.35;77.41;100995.16;2780715;85;21019;-73
2022/02/09 11:12:56;;;;;;;2.12;1.80;;;;;;;11.36;77.16;100994.66;2779003;84;21098;-71
2022/02/09 11:17:03;;;;;;;1.62;1.17;;;;;;;11.51;76.59;100988.19;2823037;83;21068;-78
2022/02/09 11:21:11;;;;;;;2.10;1.32;;;;;;;11.58;75.06;100991.25;2797751;82;21046;-69
2022/02/09 11:25:27;;;;;;;2.70;1.50;;;;;;;11.54;75.15;100990.63;2808226;83;21702;-75
2022/02/09 11:34:03;;;;;;;1.37;0.90;;;;;;;11.47;75.65;100982.73;2828520;84;21042;-76
2022/02/09 11:38:14;;;;;;;3.50;0.85;;;;;;;11.33;76.32;100988.23;2790762;84;21010;-76
2022/02/09 11:42:45;;;;;;;1.20;1.10;;;;;;;11.39;75.93;100994.42;2847964;82;21058;-77
2022/02/09 11:47:42;;;;;;;0.60;0.60;;;;;;;11.73;76.40;100993.23;2827004;83;21038;-78
2022/02/09 11:55:12;;;;;;;2.05;0.78;;;;;;;11.96;75.56;101002.63;2827604;83;20947;-71
2022/02/09 12:12:25;;;;;;;2.50;2.02;;;;;;;11.23;74.69;101010.23;2848960;83;21076;-70
2022/02/09 12:16:48;;;;;;;2.02;1.35;;;;;;;11.17;74.97;101001.83;2814488;82;21029;-71
2022/02/09 12:20:48;;;;;;;1.22;1.10;;;;;;;11.11;74.54;100997.80;2827401;83;21026;-71
2022/02/09 12:24:56;;;;;;;1.92;1.12;;;;;;;11.11;74.37;100989.34;2829431;84;21042;-69
2022/02/09 12:29:00;;;;;;;1.15;1.12;;;;;;;11.13;75.39;100997.20;2824782;83;20995;-77
2022/02/09 12:33:01;;;;;;;1.80;1.32;;;;;;;11.20;75.80;100987.82;2829455;83;21058;-77
2022/02/09 12:37:16;;;;;;;2.27;1.45;;;;;;;11.18;75.08;100960.92;2826177;84;20994;-77
2022/02/09 12:41:23;;;;;;;2.17;1.65;;;;;;;11.16;74.80;100978.33;2825764;84;21105;-77
2022/02/09 12:45:27;;;;;;;2.67;1.52;;;;;;;11.19;75.30;100992.75;2826436;84;21050;-74
2022/02/09 12:49:31;;;;;;;1.12;1.07;;;;;;;11.15;74.47;100985.95;2826293;84;21046;-75
2022/02/09 12:53:34;;;;;;;2.27;1.75;;;;;;;11.11;74.32;100981.35;2827240;84;21050;-75
2022/02/09 12:57:39;;;;;;;2.02;1.70;;;;;;;11.20;74.36;100985.16;2826829;84;21061;-70
2022/02/09 13:01:48;;;;;;;1.92;1.45;;;;;;;11.19;73.55;100987.92;2826193;84;21066;-71
2022/02/09 13:05:53;;;;;;;2.75;2.10;;;;;;;11.24;74.01;100978.63;2826727;84;20991;-72
2022/02/09 13:09:56;;;;;;;1.90;1.72;;;;;;;11.18;72.88;100975.07;2826436;84;21535;-71
2022/02/09 13:14:28;;;;;;;2.33;2.12;;;;;;;11.17;72.22;100972.04;2826696;84;21358;-77
2022/02/09 13:51:43;;;;;;;2.47;1.95;;;;;;;11.11;72.02;100959.19;2826778;82;21058;-71
2022/02/09 14:18:59;;;;;;;3.70;2.05;;;;;;;11.05;70.61;100939.69;2821856;84;20975;-73
2022/02/09 14:56:49;;;;;;;2.50;1.85;;;;;;;10.79;71.72;100931.77;2820983;84;21024;-71
2022/02/09 15:00:47;;;;;;;3.27;2.15;;;;;;;10.77;71.46;100932.36;2818467;84;20966;-71
2022/02/09 15:09:09;;;;;;;3.90;2.22;;;;;;;10.77;71.90;100937.69;2820792;84;21011;-71
2022/02/09 15:13:27;;;;;;;3.83;2.58;;;;;;;10.70;71.65;100932.81;2817940;84;21046;-74
2022/02/09 15:17:30;;;;;;;3.33;2.42;;;;;;;10.69;71.68;100928.92;2814481;84;21582;-77
2022/02/09 15:21:25;;;;;;;3.77;2.60;;;;;;;10.66;71.55;100932.67;2815231;84;21666;-78
2022/02/09 15:25:22;;;;;;;2.75;2.55;;;;;;;10.68;71.44;100936.54;2798430;84;20991;-77
2022/02/09 15:29:24;;;;;;;4.58;2.50;;;;;;;10.62;72.05;100928.54;2783469;85;21042;-71
2022/02/09 15:33:33;;;;;;;3.12;2.77;;;;;;;10.61;71.55;100932.63;2829996;84;21070;-78
2022/02/09 15:38:09;;;;;;;3.83;2.80;;;;;;;10.61;72.31;100930.83;2831861;84;21026;-73
2022/02/09 15:41:58;;;;;;;6.00;2.83;;;;;;;10.62;72.34;100929.01;2827172;83;21324;-80
2022/02/09 16:11:13;;;;;;;4.92;3.08;;;;;;;10.37;71.67;100920.92;2792030;84;21087;-75
2022/02/09 16:23:43;;;;;;;1.87;1.60;;;;;;;10.34;72.32;100920.32;2787318;84;21031;-75
2022/02/09 16:44:44;;;;;;;5.35;3.92;;;;;;;10.02;73.01;100926.91;2793078;84;21047;-72
2022/02/09 16:48:56;;;;;;;5.28;3.58;;;;;;;10.05;73.71;100930.70;2801319;83;21567;-71
2022/02/09 16:53:04;;;;;;;6.75;4.17;;;;;;;10.06;73.69;100928.42;2793048;84;21099;-71
2022/02/09 17:22:36;;;;;;;4.87;3.15;;;;;;;10.15;71.90;100938.39;2810708;84;21572;-78
2022/02/09 17:26:37;;;;;;;4.03;2.45;;;;;;;10.23;71.74;100932.55;2790562;83;20980;-75
2022/02/09 17:31:33;;;;;;;2.40;2.20;;;;;;;10.29;71.34;100929.94;2776250;85;21010;-78
2022/02/09 17:34:55;;;;;;;6.00;2.80;;;;;;;10.34;71.74;100929.13;2754425;85;21023;-78
2022/02/09 18:04:16;;;;;;;5.53;3.27;;;;;;;10.21;72.51;100931.81;2775443;85;21089;-79
2022/02/09 18:12:47;;;;;;;4.72;3.50;;;;;;;10.24;72.30;100922.28;2775491;84;21113;-76
2022/02/09 18:29:27;;;;;;;5.05;3.95;;;;;;;10.19;72.29;100913.79;2768157;85;21081;-75
2022/02/09 18:46:24;;;;;;;3.67;3.10;;;;;;;10.30;72.52;100921.00;2827019;84;21049;-73
2022/02/09 19:03:04;;;;;;;6.58;4.30;;;;;;;10.31;72.46;100924.03;2826621;84;21053;-74
2022/02/09 19:07:22;;;;;;;3.45;3.17;;;;;;;10.35;72.76;100920.19;2826255;84;21595;-72
2022/02/09 19:15:51;;;;;;;4.80;2.67;;;;;;;10.32;72.49;100924.87;2827248;84;21031;-72
2022/02/09 19:32:25;;;;;;;5.40;3.02;;;;;;;10.29;72.76;100918.81;2813475;82;21458;-72
2022/02/09 19:49:12;;;;;;;6.05;3.20;;;;;;;10.28;72.99;100916.28;2734790;87;21162;-71
2022/02/09 19:57:18;;;;;;;3.92;3.42;;;;;;;10.33;72.91;100918.13;2736281;87;21539;-72
2022/02/09 20:01:21;;;;;;;4.22;2.83;;;;;;;10.33;72.87;100911.47;2783874;85;21097;-72
2022/02/09 20:05:24;;;;;;;3.27;2.98;;;;;;;10.37;73.20;100918.77;2783950;85;21041;-71
2022/02/09 20:09:26;;;;;;;3.08;2.75;;;;;;;10.34;73.60;100911.84;2783743;85;21105;-71
2022/02/09 20:13:28;;;;;;;5.47;3.62;;;;;;;10.37;73.33;100916.11;2814277;83;21065;-72
2022/02/09 20:17:29;;;;;;;7.03;3.37;;;;;;;10.39;73.27;100916.84;2831463;84;21010;-72
2022/02/09 20:21:31;;;;;;;4.22;3.25;;;;;;;10.41;73.12;100905.64;2831240;84;21017;-72
2022/02/09 20:25:33;;;;;;;3.40;3.10;;;;;;;10.36;73.10;100904.61;2831545;83;21022;-71
2022/02/09 20:29:37;;;;;;;5.53;3.30;;;;;;;10.42;73.29;100902.89;2857751;83;21036;-72
2022/02/09 20:33:45;;;;;;;2.87;2.40;;;;;;;10.36;72.85;100913.91;2828254;84;21058;-72
2022/02/09 20:37:46;;;;;;;3.25;2.77;;;;;;;10.34;73.08;100915.83;2826530;84;21045;-77
2022/02/09 20:41:46;;;;;;;3.10;2.60;;;;;;;10.37;72.94;100914.77;2826074;83;21515;-75
2022/02/09 20:45:59;;;;;;;3.90;3.42;;;;;;;10.36;73.46;100918.39;2826504;84;21034;-71
2022/02/09 20:49:58;;;;;;;4.60;3.10;;;;;;;10.39;73.89;100917.68;2830164;84;21066;-75
2022/02/09 20:53:59;;;;;;;5.08;3.62;;;;;;;10.38;73.77;100910.66;2830211;84;20999;-76
2022/02/09 20:58:03;;;;;;;3.47;2.22;;;;;;;10.44;73.65;100912.07;2830026;84;21015;-76
2022/02/09 21:02:19;;;;;;;4.08;3.35;;;;;;;10.42;73.65;100915.33;2831058;84;21022;-76
2022/02/09 21:10:37;;;;;;;3.83;2.77;;;;;;;10.41;73.14;100919.78;2829219;84;21065;-77
2022/02/09 21:23:15;;;;;;;5.35;3.30;;;;;;;10.42;73.23;100916.66;2828203;84;21042;-72
2022/02/09 21:27:17;;;;;;;2.87;2.45;;;;;;;10.41;73.51;100912.30;2808353;84;21110;-73
2022/02/09 21:56:30;;;;;;;4.28;3.33;;;;;;;10.26;75.85;100912.88;2824921;83;21032;-78
2022/02/09 22:55:24;;;;;;;4.28;3.12;;;;;;;10.15;77.04;100904.33;2824458;84;21431;-76
2022/02/09 23:16:17;;;;;;;7.90;4.97;;;;;;;10.15;77.00;100894.53;2824163;84;21038;-71
